createdAt,value
2017-09-02T00:00:05.018Z,66.20
2017-09-02T00:02:33.259Z,68.00
2017-09-02T00:05:01.499Z,67.20
2017-09-02T00:07:29.783Z,70.50
2017-09-02T00:09:58.026Z,70.30
2017-09-02T00:12:26.274Z,69.80
2017-09-02T00:14:54.545Z,71.60
2017-09-02T00:17:22.783Z,69.80
2017-09-02T00:19:51.022Z,69.80
2017-09-02T00:22:19.767Z,68.70
2017-09-02T00:24:48.402Z,68.00
2017-09-02T00:27:17.410Z,69.40
2017-09-02T00:29:46.442Z,70.20
2017-09-02T00:32:14.686Z,70.20
2017-09-02T00:34:42.921Z,73.10
2017-09-02T00:37:11.186Z,74.00
2017-09-02T00:39:39.428Z,70.90
2017-09-02T00:42:07.674Z,74.20
2017-09-02T00:44:36.966Z,73.30
2017-09-02T00:47:05.358Z,73.40
2017-09-02T00:49:34.369Z,71.80
2017-09-02T00:52:02.721Z,71.80
2017-09-02T00:54:30.964Z,74.90
2017-09-02T00:56:59.227Z,73.70
2017-09-02T00:59:27.494Z,74.60
2017-09-02T01:01:55.752Z,74.20
2017-09-02T01:04:23.982Z,76.00
2017-09-02T01:06:52.431Z,75.10
2017-09-02T01:09:20.669Z,75.60
2017-09-02T01:11:48.910Z,77.10
2017-09-02T01:14:17.179Z,74.20
2017-09-02T01:16:45.417Z,72.90
2017-09-02T01:19:13.658Z,75.70
2017-09-02T01:21:41.926Z,77.10
2017-09-02T01:24:10.171Z,77.50
2017-09-02T01:26:38.810Z,75.70
2017-09-02T01:29:08.155Z,75.50
2017-09-02T01:31:36.401Z,75.30
2017-09-02T01:34:05.761Z,72.40
2017-09-02T01:36:34.018Z,72.70
2017-09-02T01:39:02.266Z,74.60
2017-09-02T01:41:30.510Z,73.00
2017-09-02T01:43:58.773Z,76.00
2017-09-02T01:46:27.014Z,79.80
2017-09-02T01:48:55.254Z,78.50
2017-09-02T01:51:23.589Z,75.60
2017-09-02T01:53:51.838Z,78.10
2017-09-02T01:56:20.074Z,75.20
2017-09-02T01:58:48.645Z,76.90
2017-09-02T02:01:16.997Z,78.00
2017-09-02T02:03:45.243Z,80.00
2017-09-02T02:06:13.502Z,79.40
2017-09-02T02:08:41.824Z,79.50
2017-09-02T02:11:10.062Z,80.10
2017-09-02T02:13:38.739Z,80.60
2017-09-02T02:16:08.198Z,81.80
2017-09-02T02:18:36.446Z,80.00
2017-09-02T02:21:04.714Z,81.50
2017-09-02T02:23:32.961Z,80.30
2017-09-02T02:26:01.203Z,77.60
2017-09-02T02:28:29.529Z,80.40
2017-09-02T02:30:57.769Z,82.60
2017-09-02T02:33:26.010Z,81.10
2017-09-02T02:35:54.381Z,80.90
2017-09-02T02:38:22.626Z,81.90
2017-09-02T02:40:51.142Z,83.70
2017-09-02T02:43:19.401Z,83.80
2017-09-02T02:45:47.647Z,83.30
2017-09-02T02:48:15.889Z,80.80
2017-09-02T02:50:44.150Z,81.10
2017-09-02T02:53:12.390Z,83.80
2017-09-02T02:55:40.629Z,82.10
2017-09-02T02:58:09.197Z,81.20
2017-09-02T03:00:37.442Z,82.50
2017-09-02T03:03:05.686Z,82.20
2017-09-02T03:05:33.962Z,79.80
2017-09-02T03:08:02.322Z,80.60
2017-09-02T03:10:30.570Z,80.90
2017-09-02T03:12:58.829Z,81.90
2017-09-02T03:15:27.181Z,81.10
2017-09-02T03:17:56.197Z,79.50
2017-09-02T03:20:24.902Z,79.50
2017-09-02T03:22:53.142Z,80.00
2017-09-02T03:25:21.579Z,80.20
2017-09-02T03:27:49.839Z,84.00
2017-09-02T03:30:18.275Z,80.50
2017-09-02T03:32:46.510Z,82.90
2017-09-02T03:35:14.787Z,82.90
2017-09-02T03:37:43.173Z,79.20
2017-09-02T03:40:11.422Z,81.90
2017-09-02T03:42:40.622Z,82.60
2017-09-02T03:45:08.862Z,85.10
2017-09-02T03:47:37.302Z,84.50
2017-09-02T03:50:05.572Z,84.20
2017-09-02T03:52:33.809Z,83.60
2017-09-02T03:55:02.058Z,84.00
2017-09-02T03:57:30.401Z,84.80
2017-09-02T03:59:58.621Z,84.70
2017-09-02T04:02:26.870Z,85.30
2017-09-02T04:04:55.409Z,85.90
2017-09-02T04:07:23.651Z,84.50
2017-09-02T04:09:51.894Z,84.30
2017-09-02T04:12:20.157Z,85.90
2017-09-02T04:14:48.389Z,85.30
2017-09-02T04:17:16.630Z,85.20
2017-09-02T04:19:44.929Z,85.90
2017-09-02T04:22:13.166Z,90.10
2017-09-02T04:24:41.418Z,87.60
2017-09-02T04:27:10.206Z,87.00
2017-09-02T04:29:38.450Z,85.80
2017-09-02T04:32:06.929Z,85.80
2017-09-02T04:34:35.210Z,86.90
2017-09-02T04:37:03.454Z,85.50
2017-09-02T04:39:31.698Z,86.40
2017-09-02T04:41:59.966Z,85.20
2017-09-02T04:44:28.220Z,86.40
2017-09-02T04:46:57.229Z,86.20
2017-09-02T04:49:25.621Z,86.00
2017-09-02T04:51:53.861Z,85.40
2017-09-02T04:54:22.109Z,84.60
2017-09-02T04:56:50.358Z,84.50
2017-09-02T04:59:18.601Z,83.40
2017-09-02T05:01:46.838Z,85.00
2017-09-02T05:04:15.109Z,86.50
2017-09-02T05:06:44.274Z,87.50
2017-09-02T05:09:12.522Z,88.40
2017-09-02T05:11:40.845Z,88.10
2017-09-02T05:14:09.086Z,87.40
2017-09-02T05:16:37.406Z,87.10
2017-09-02T05:19:05.666Z,86.40
2017-09-02T05:21:33.916Z,87.10
2017-09-02T05:24:02.154Z,86.30
2017-09-02T05:26:30.417Z,85.00
2017-09-02T05:28:58.662Z,85.50
2017-09-02T05:31:27.149Z,86.80
2017-09-02T05:33:56.454Z,83.70
2017-09-02T05:36:24.698Z,86.40
2017-09-02T05:38:52.939Z,86.60
2017-09-02T05:41:21.234Z,85.10
2017-09-02T05:43:49.474Z,84.70
2017-09-02T05:46:17.710Z,84.50
2017-09-02T05:48:45.982Z,84.40
2017-09-02T05:51:14.222Z,83.00
2017-09-02T05:53:42.462Z,86.40
2017-09-02T05:56:11.060Z,86.40
2017-09-02T05:58:39.298Z,83.20
2017-09-02T06:01:07.546Z,81.90
2017-09-02T06:03:35.826Z,83.30
2017-09-02T06:06:04.075Z,83.30
2017-09-02T06:08:32.513Z,84.50
2017-09-02T06:11:00.849Z,83.10
2017-09-02T06:13:29.091Z,82.80
2017-09-02T06:15:57.334Z,82.60
2017-09-02T06:18:25.742Z,81.50
2017-09-02T06:20:54.059Z,82.10
2017-09-02T06:23:22.414Z,84.40
2017-09-02T06:25:50.665Z,82.70
2017-09-02T06:28:18.906Z,83.50
2017-09-02T06:30:47.914Z,84.10
2017-09-02T06:33:16.249Z,84.00
2017-09-02T06:35:44.951Z,82.40
2017-09-02T06:38:13.193Z,83.10
2017-09-02T06:40:41.754Z,81.40
2017-09-02T06:43:10.054Z,79.80
2017-09-02T06:45:38.298Z,80.80
2017-09-02T06:48:06.565Z,80.90
2017-09-02T06:50:34.820Z,80.00
2017-09-02T06:53:03.058Z,81.00
2017-09-02T06:55:31.346Z,81.40
2017-09-02T06:57:59.714Z,80.10
2017-09-02T07:00:27.962Z,80.60
2017-09-02T07:02:56.866Z,79.50
2017-09-02T07:05:25.101Z,78.50
2017-09-02T07:07:54.114Z,79.60
2017-09-02T07:10:22.377Z,79.60
2017-09-02T07:12:50.627Z,78.90
2017-09-02T07:15:18.861Z,79.00
2017-09-02T07:17:47.142Z,78.70
2017-09-02T07:20:15.434Z,77.70
2017-09-02T07:22:43.673Z,76.30
2017-09-02T07:25:12.273Z,76.40
2017-09-02T07:27:40.518Z,76.90
2017-09-02T07:30:08.762Z,77.50
2017-09-02T07:32:37.022Z,76.40
2017-09-02T07:35:05.264Z,76.70
2017-09-02T07:37:33.809Z,78.10
2017-09-02T07:40:02.066Z,76.10
2017-09-02T07:42:30.312Z,75.20
2017-09-02T07:44:58.552Z,74.30
2017-09-02T07:47:27.074Z,74.30
2017-09-02T07:49:55.366Z,74.90
2017-09-02T07:52:23.753Z,74.30
2017-09-02T07:54:52.023Z,74.20
2017-09-02T07:57:20.261Z,73.60
2017-09-02T07:59:48.591Z,74.00
2017-09-02T08:02:16.985Z,74.70
2017-09-02T08:04:45.234Z,73.60
2017-09-02T08:07:13.477Z,73.40
2017-09-02T08:09:41.878Z,72.40
2017-09-02T08:12:10.122Z,72.40
2017-09-02T08:14:38.554Z,72.70
2017-09-02T08:17:06.818Z,72.20
2017-09-02T08:19:35.058Z,72.80
2017-09-02T08:22:03.323Z,73.10
2017-09-02T08:24:31.578Z,72.60
2017-09-02T08:26:59.822Z,72.40
2017-09-02T08:29:28.214Z,69.70
2017-09-02T08:31:56.671Z,67.90
2017-09-02T08:34:25.181Z,68.30
2017-09-02T08:36:53.662Z,68.40
2017-09-02T08:39:22.146Z,67.60
2017-09-02T08:41:51.153Z,67.70
2017-09-02T08:44:19.398Z,68.50
2017-09-02T08:46:49.082Z,68.40
2017-09-02T08:49:17.384Z,68.40
2017-09-02T08:51:45.625Z,68.50
2017-09-02T08:54:14.234Z,67.90
2017-09-02T08:56:42.474Z,65.80
2017-09-02T08:59:10.902Z,66.40
2017-09-02T09:01:39.177Z,66.10
2017-09-02T09:04:07.412Z,67.40
2017-09-02T09:06:35.735Z,67.40
2017-09-02T09:09:05.057Z,65.00
2017-09-02T09:11:33.924Z,64.60
2017-09-02T09:14:03.326Z,64.60
2017-09-02T09:16:31.785Z,64.60
2017-09-02T09:19:00.026Z,65.60
2017-09-02T09:21:28.266Z,65.20
2017-09-02T09:23:56.532Z,66.00
2017-09-02T09:26:24.922Z,65.50
2017-09-02T09:28:53.154Z,64.20
2017-09-02T09:31:21.436Z,63.40
2017-09-02T09:33:49.680Z,64.10
2017-09-02T09:36:18.334Z,64.20
2017-09-02T09:38:46.907Z,64.10
2017-09-02T09:41:15.811Z,63.30
2017-09-02T09:43:44.056Z,59.60
2017-09-02T09:46:13.523Z,58.70
2017-09-02T09:48:42.554Z,60.10
2017-09-02T09:51:11.537Z,59.80
2017-09-02T09:53:39.878Z,59.80
2017-09-02T09:56:08.241Z,59.90
2017-09-02T09:58:36.650Z,60.80
2017-09-02T10:01:05.374Z,60.10
2017-09-02T10:03:33.682Z,59.00
2017-09-02T10:06:01.926Z,57.90
2017-09-02T10:08:30.195Z,55.10
2017-09-02T10:10:58.433Z,55.40
2017-09-02T10:13:26.779Z,54.30
2017-09-02T10:15:55.033Z,53.50
2017-09-02T10:18:23.519Z,54.30
2017-09-02T10:20:52.943Z,53.10
2017-09-02T10:23:21.282Z,52.20
2017-09-02T10:25:49.702Z,51.50
2017-09-02T10:28:17.943Z,51.10
2017-09-02T10:30:46.214Z,50.60
2017-09-02T10:33:14.462Z,49.40
2017-09-02T10:35:42.702Z,48.80
2017-09-02T10:38:10.962Z,49.30
2017-09-02T10:40:39.201Z,49.10
2017-09-02T10:43:08.046Z,49.70
2017-09-02T10:45:36.386Z,49.00
2017-09-02T10:48:04.638Z,47.90
2017-09-02T10:50:33.630Z,47.30
2017-09-02T10:53:02.657Z,46.20
2017-09-02T10:55:30.921Z,46.10
2017-09-02T10:57:59.590Z,47.60
2017-09-02T11:00:27.962Z,46.50
2017-09-02T11:02:56.219Z,45.10
2017-09-02T11:05:24.459Z,45.30
2017-09-02T11:07:53.146Z,46.90
2017-09-02T11:10:21.386Z,45.80
2017-09-02T11:12:49.631Z,45.00
2017-09-02T11:15:17.894Z,44.60
2017-09-02T11:17:46.134Z,44.80
2017-09-02T11:20:14.377Z,42.50
2017-09-02T11:22:42.750Z,42.70
2017-09-02T11:25:11.102Z,44.20
2017-09-02T11:27:39.402Z,42.60
2017-09-02T11:30:08.270Z,43.90
2017-09-02T11:32:36.514Z,43.80
2017-09-02T11:35:04.754Z,44.60
2017-09-02T11:37:33.067Z,44.50
2017-09-02T11:40:01.379Z,44.80
2017-09-02T11:42:29.626Z,44.80
2017-09-02T11:44:58.497Z,44.50
2017-09-02T11:47:26.738Z,45.00
2017-09-02T11:49:55.199Z,43.50
2017-09-02T11:52:23.661Z,41.50
2017-09-02T11:54:51.902Z,41.60
2017-09-02T11:57:20.346Z,40.30
2017-09-02T11:59:48.614Z,41.30
2017-09-02T12:02:16.858Z,39.90
2017-09-02T12:04:45.169Z,38.30
2017-09-02T12:07:13.434Z,39.10
2017-09-02T12:09:41.678Z,37.30
2017-09-02T12:12:09.997Z,38.40
2017-09-02T12:14:39.074Z,38.00
2017-09-02T12:17:07.370Z,39.10
2017-09-02T12:19:35.758Z,36.90
2017-09-02T12:22:06.003Z,35.60
2017-09-02T12:24:34.358Z,36.90
2017-09-02T12:27:02.735Z,36.10
2017-09-02T12:29:30.996Z,37.90
2017-09-02T12:31:59.234Z,39.30
2017-09-02T12:34:27.559Z,38.40
2017-09-02T12:36:56.330Z,37.60
2017-09-02T12:39:24.565Z,38.20
2017-09-02T12:41:52.810Z,38.70
2017-09-02T12:44:21.118Z,38.40
2017-09-02T12:46:50.449Z,38.10
2017-09-02T12:49:18.686Z,38.00
2017-09-02T12:51:46.954Z,39.20
2017-09-02T12:54:15.221Z,38.30
2017-09-02T12:56:43.467Z,36.90
2017-09-02T12:59:11.874Z,35.90
2017-09-02T13:01:40.126Z,34.50
2017-09-02T13:04:08.379Z,35.00
2017-09-02T13:06:36.633Z,36.80
2017-09-02T13:09:04.882Z,34.80
2017-09-02T13:11:33.118Z,34.80
2017-09-02T13:14:01.386Z,34.10
2017-09-02T13:16:29.783Z,29.90
2017-09-02T13:18:58.019Z,31.30
2017-09-02T13:21:26.338Z,31.60
2017-09-02T13:23:54.614Z,31.40
2017-09-02T13:26:25.146Z,30.10
2017-09-02T13:28:53.414Z,30.80
2017-09-02T13:31:21.817Z,29.80
2017-09-02T13:33:50.058Z,27.10
2017-09-02T13:36:19.586Z,28.50
2017-09-02T13:38:47.826Z,28.10
2017-09-02T13:41:16.066Z,28.40
2017-09-02T13:43:44.466Z,28.40
2017-09-02T13:46:12.719Z,28.80
2017-09-02T13:48:41.153Z,30.10
2017-09-02T13:51:09.496Z,28.70
2017-09-02T13:53:37.839Z,28.40
2017-09-02T13:56:06.086Z,28.50
2017-09-02T13:58:34.349Z,30.00
2017-09-02T14:01:02.708Z,30.30
2017-09-02T14:03:32.025Z,30.80
2017-09-02T14:06:03.198Z,31.20
2017-09-02T14:08:31.496Z,32.10
2017-09-02T14:10:59.873Z,33.00
2017-09-02T14:13:28.278Z,33.30
2017-09-02T14:15:56.645Z,32.80
2017-09-02T14:18:25.394Z,33.20
2017-09-02T14:20:53.666Z,33.40
2017-09-02T14:23:21.902Z,34.20
2017-09-02T14:25:51.073Z,34.20
2017-09-02T14:28:23.256Z,34.50
2017-09-02T14:30:51.514Z,34.50
2017-09-02T14:33:19.892Z,34.50
2017-09-02T14:35:48.150Z,34.90
2017-09-02T14:38:16.554Z,36.30
2017-09-02T14:40:44.781Z,32.70
2017-09-02T14:43:13.139Z,32.30
2017-09-02T14:45:41.535Z,31.50
2017-09-02T14:48:09.775Z,30.30
2017-09-02T14:50:38.654Z,30.50
2017-09-02T14:53:06.926Z,30.80
2017-09-02T14:55:36.136Z,31.60
2017-09-02T14:58:04.382Z,32.70
2017-09-02T15:00:32.685Z,32.20
2017-09-02T15:03:00.918Z,32.60
2017-09-02T15:05:29.182Z,32.90
2017-09-02T15:07:57.522Z,33.10
2017-09-02T15:10:25.898Z,33.50
2017-09-02T15:12:54.377Z,33.60
2017-09-02T15:15:22.629Z,34.20
2017-09-02T15:17:50.861Z,34.50
2017-09-02T15:20:19.130Z,34.60
2017-09-02T15:22:48.138Z,33.80
2017-09-02T15:25:17.141Z,33.90
2017-09-02T15:27:45.566Z,33.90
2017-09-02T15:30:13.806Z,31.90
2017-09-02T15:32:42.230Z,31.10
2017-09-02T15:35:10.589Z,29.90
2017-09-02T15:37:38.982Z,29.40
2017-09-02T15:40:07.226Z,28.90
2017-09-02T15:42:35.501Z,28.40
2017-09-02T15:45:03.738Z,29.20
2017-09-02T15:47:31.981Z,29.60
2017-09-02T15:50:00.242Z,29.90
2017-09-02T15:52:28.638Z,30.90
2017-09-02T15:54:57.018Z,30.20
2017-09-02T15:57:25.471Z,30.30
2017-09-02T15:59:53.776Z,30.00
2017-09-02T16:02:22.009Z,30.50
2017-09-02T16:04:50.278Z,30.00
2017-09-02T16:07:19.285Z,31.90
2017-09-02T16:09:47.533Z,31.90
2017-09-02T16:12:16.014Z,31.90
2017-09-02T16:14:45.471Z,32.90
2017-09-02T16:17:13.694Z,31.40
2017-09-02T16:19:43.056Z,30.60
2017-09-02T16:22:11.342Z,31.20
2017-09-02T16:24:39.726Z,29.50
2017-09-02T16:27:08.515Z,30.40
2017-09-02T16:29:36.798Z,31.00
2017-09-02T16:32:05.162Z,31.00
2017-09-02T16:34:33.582Z,31.20
2017-09-02T16:37:05.926Z,32.10
2017-09-02T16:39:34.398Z,32.60
2017-09-02T16:42:02.862Z,32.90
2017-09-02T16:44:33.202Z,33.10
2017-09-02T16:47:03.471Z,33.60
2017-09-02T16:49:31.837Z,33.80
2017-09-02T16:52:00.183Z,34.00
2017-09-02T16:54:29.381Z,34.70
2017-09-02T16:56:58.794Z,34.50
2017-09-02T16:59:28.288Z,34.50
2017-09-02T17:01:56.593Z,34.00
2017-09-02T17:04:24.845Z,34.30
2017-09-02T17:06:54.354Z,34.30
2017-09-02T17:09:23.786Z,34.70
2017-09-02T17:11:53.058Z,34.90
2017-09-02T17:14:22.354Z,35.30
2017-09-02T17:16:50.759Z,36.00
2017-09-02T17:19:19.117Z,36.10
2017-09-02T17:21:47.591Z,36.20
2017-09-02T17:24:16.029Z,36.40
2017-09-02T17:26:45.494Z,36.70
2017-09-02T17:29:13.870Z,36.60
2017-09-02T17:31:42.174Z,36.90
2017-09-02T17:34:11.177Z,37.20
2017-09-02T17:36:39.606Z,37.20
2017-09-02T17:39:08.050Z,37.40
2017-09-02T17:41:36.294Z,37.70
2017-09-02T17:44:04.531Z,37.70
2017-09-02T17:46:32.854Z,38.10
2017-09-02T17:49:01.402Z,38.30
2017-09-02T17:51:29.626Z,38.40
2017-09-02T17:54:01.968Z,38.40
2017-09-02T17:56:30.934Z,38.70
2017-09-02T17:58:59.177Z,39.00
2017-09-02T18:01:27.445Z,39.20
2017-09-02T18:03:55.688Z,39.70
2017-09-02T18:06:23.933Z,40.60
2017-09-02T18:08:52.341Z,41.90
2017-09-02T18:11:20.569Z,41.50
2017-09-02T18:13:48.810Z,43.40
2017-09-02T18:16:17.070Z,44.30
2017-09-02T18:18:45.310Z,44.30
2017-09-02T18:21:14.734Z,43.90
2017-09-02T18:23:43.145Z,44.50
2017-09-02T18:26:11.579Z,45.10
2017-09-02T18:28:39.954Z,44.50
2017-09-02T18:31:08.337Z,44.50
2017-09-02T18:33:36.583Z,45.50
2017-09-02T18:36:04.818Z,45.60
2017-09-02T18:38:33.230Z,46.60
2017-09-02T18:41:01.474Z,46.70
2017-09-02T18:43:29.728Z,46.30
2017-09-02T18:45:57.982Z,47.70
2017-09-02T18:48:26.226Z,47.20
2017-09-02T18:50:54.666Z,48.70
2017-09-02T18:53:23.434Z,49.30
2017-09-02T18:55:51.675Z,49.20
2017-09-02T18:58:20.149Z,49.00
2017-09-02T19:00:49.178Z,49.50
2017-09-02T19:03:17.442Z,49.40
2017-09-02T19:05:45.666Z,49.40
2017-09-02T19:08:13.968Z,48.30
2017-09-02T19:10:42.209Z,48.70
2017-09-02T19:13:10.447Z,48.50
2017-09-02T19:15:39.158Z,48.50
2017-09-02T19:18:07.390Z,49.60
2017-09-02T19:20:35.636Z,49.70
2017-09-02T19:23:03.902Z,50.10
2017-09-02T19:25:32.138Z,49.90
2017-09-02T19:28:00.386Z,50.70
2017-09-02T19:30:28.641Z,52.50
2017-09-02T19:32:56.879Z,52.70
2017-09-02T19:35:25.122Z,52.40
2017-09-02T19:37:53.881Z,53.60
2017-09-02T19:40:22.140Z,52.70
2017-09-02T19:42:50.397Z,55.00
2017-09-02T19:45:18.642Z,54.40
2017-09-02T19:47:46.891Z,55.70
2017-09-02T19:50:15.126Z,55.60
2017-09-02T19:52:43.613Z,54.70
2017-09-02T19:55:11.880Z,56.10
2017-09-02T19:57:40.305Z,56.70
2017-09-02T20:00:09.090Z,55.80
2017-09-02T20:02:37.334Z,56.00
2017-09-02T20:05:05.565Z,55.10
2017-09-02T20:07:33.826Z,56.60
2017-09-02T20:10:02.065Z,57.40
2017-09-02T20:12:30.306Z,57.10
2017-09-02T20:14:58.570Z,56.90
2017-09-02T20:17:26.818Z,57.10
2017-09-02T20:19:55.061Z,56.80
2017-09-02T20:22:23.370Z,58.00
2017-09-02T20:24:51.619Z,56.30
2017-09-02T20:27:19.855Z,56.90
2017-09-02T20:29:48.126Z,55.60
2017-09-02T20:32:16.364Z,56.00
2017-09-02T20:34:44.746Z,57.80
2017-09-02T20:37:13.011Z,56.60
2017-09-02T20:39:41.257Z,56.90
2017-09-02T20:42:09.490Z,57.20
2017-09-02T20:44:38.035Z,57.20
2017-09-02T20:47:06.274Z,57.00
2017-09-02T20:49:34.513Z,56.30
2017-09-02T20:52:02.789Z,56.30
2017-09-02T20:54:31.173Z,57.00
2017-09-02T20:56:59.422Z,56.00
2017-09-02T20:59:27.681Z,56.60
2017-09-02T21:01:56.603Z,56.20
2017-09-02T21:04:24.841Z,58.20
2017-09-02T21:06:53.159Z,56.70
2017-09-02T21:09:22.162Z,56.90
2017-09-02T21:11:54.453Z,56.90
2017-09-02T21:14:22.685Z,57.10
2017-09-02T21:16:50.940Z,57.10
2017-09-02T21:19:19.546Z,56.80
2017-09-02T21:21:47.782Z,57.70
2017-09-02T21:24:16.014Z,57.10
2017-09-02T21:26:44.738Z,57.30
2017-09-02T21:29:13.799Z,57.50
2017-09-02T21:31:42.021Z,57.50
2017-09-02T21:34:10.303Z,57.10
2017-09-02T21:36:38.542Z,58.30
2017-09-02T21:39:06.774Z,57.80
2017-09-02T21:41:35.050Z,58.20
2017-09-02T21:44:03.289Z,58.70
2017-09-02T21:46:31.734Z,60.10
2017-09-02T21:49:00.225Z,58.70
2017-09-02T21:51:28.463Z,58.60
2017-09-02T21:53:56.701Z,59.40
2017-09-02T21:56:24.962Z,58.50
2017-09-02T21:58:53.205Z,58.30
2017-09-02T22:01:21.446Z,59.00
2017-09-02T22:03:50.750Z,59.00
2017-09-02T22:06:18.993Z,58.90
2017-09-02T22:08:47.486Z,59.10
2017-09-02T22:11:16.829Z,59.60
2017-09-02T22:13:45.075Z,59.60
2017-09-02T22:16:13.317Z,59.30
2017-09-02T22:18:41.590Z,60.20
2017-09-02T22:21:09.822Z,61.40
2017-09-02T22:23:38.097Z,65.30
2017-09-02T22:26:06.450Z,65.80
2017-09-02T22:28:35.466Z,63.90
2017-09-02T22:31:03.710Z,63.90
2017-09-02T22:33:32.251Z,63.60
2017-09-02T22:36:00.586Z,63.10
2017-09-02T22:38:29.602Z,63.00
2017-09-02T22:40:57.950Z,63.00
2017-09-02T22:43:26.194Z,62.40
2017-09-02T22:45:54.435Z,62.30
2017-09-02T22:48:22.705Z,62.80
2017-09-02T22:50:50.954Z,62.80
2017-09-02T22:53:19.199Z,62.60
2017-09-02T22:55:47.662Z,62.60
2017-09-02T22:58:15.898Z,65.20
2017-09-02T23:00:44.137Z,63.80
2017-09-02T23:03:12.408Z,64.90
2017-09-02T23:05:40.822Z,63.20
2017-09-02T23:08:09.254Z,65.90
2017-09-02T23:10:37.526Z,64.30
2017-09-02T23:13:05.761Z,63.60
2017-09-02T23:15:34.005Z,70.90
2017-09-02T23:18:02.334Z,65.20
2017-09-02T23:20:30.566Z,69.70
2017-09-02T23:22:58.814Z,68.10
2017-09-02T23:25:27.237Z,73.90
2017-09-02T23:27:55.486Z,68.50
2017-09-02T23:30:23.722Z,67.00
2017-09-02T23:32:52.110Z,68.10
2017-09-02T23:35:20.349Z,69.10
2017-09-02T23:37:48.591Z,69.80
2017-09-02T23:40:17.002Z,68.60
2017-09-02T23:42:45.246Z,75.10
2017-09-02T23:45:13.487Z,70.30
2017-09-02T23:47:41.754Z,68.70
2017-09-02T23:50:09.990Z,72.90
2017-09-02T23:52:38.233Z,75.80
2017-09-02T23:55:06.498Z,76.20
2017-09-02T23:57:34.738Z,77.90
